createdAt,value
2018-02-06T00:02:00.884Z,15.93
2018-02-06T00:04:28.833Z,16.50
2018-02-06T00:06:56.424Z,25.00
2018-02-06T00:09:24.016Z,25.17
2018-02-06T00:11:51.625Z,24.93
2018-02-06T00:14:19.310Z,27.87
2018-02-06T00:16:46.955Z,28.43
2018-02-06T00:19:14.585Z,17.70
2018-02-06T00:21:42.179Z,31.60
2018-02-06T00:24:09.884Z,21.73
2018-02-06T00:26:38.357Z,20.30
2018-02-06T00:29:06.028Z,15.63
2018-02-06T00:31:33.611Z,25.70
2018-02-06T00:34:01.222Z,21.53
2018-02-06T00:36:30.835Z,19.87
2018-02-06T00:39:00.578Z,24.77
2018-02-06T00:41:28.253Z,20.07
2018-02-06T00:43:55.838Z,26.10
2018-02-06T00:46:23.489Z,19.27
2018-02-06T00:48:51.130Z,20.57
2018-02-06T00:51:18.713Z,22.90
2018-02-06T00:53:46.297Z,21.33
2018-02-06T00:56:13.884Z,17.20
2018-02-06T00:58:41.468Z,20.87
2018-02-06T01:01:09.094Z,20.93
2018-02-06T01:03:37.055Z,16.17
2018-02-06T01:06:04.647Z,15.47
2018-02-06T01:08:32.219Z,20.40
2018-02-06T01:10:59.809Z,22.17
2018-02-06T01:13:27.429Z,14.90
2018-02-06T01:15:55.018Z,20.97
2018-02-06T01:18:22.602Z,21.20
2018-02-06T01:20:50.243Z,19.00
2018-02-06T01:23:17.837Z,23.23
2018-02-06T01:25:45.432Z,41.07
2018-02-06T01:28:13.020Z,21.70
2018-02-06T01:30:41.008Z,28.80
2018-02-06T01:33:08.969Z,19.07
2018-02-06T01:35:36.808Z,17.00
2018-02-06T01:38:04.399Z,26.33
2018-02-06T01:40:32.258Z,20.40
2018-02-06T01:42:59.862Z,20.83
2018-02-06T01:45:27.474Z,19.57
2018-02-06T01:47:55.290Z,19.80
2018-02-06T01:50:22.878Z,37.00
2018-02-06T01:52:50.481Z,31.83
2018-02-06T01:55:18.104Z,20.20
2018-02-06T01:57:45.664Z,22.50
2018-02-06T02:00:13.348Z,17.67
2018-02-06T02:02:41.074Z,17.83
2018-02-06T02:05:11.823Z,25.97
2018-02-06T02:07:39.467Z,29.60
2018-02-06T02:10:07.078Z,26.50
2018-02-06T02:12:34.677Z,21.43
2018-02-06T02:15:02.268Z,21.20
2018-02-06T02:17:29.840Z,19.50
2018-02-06T02:19:57.469Z,20.60
2018-02-06T02:22:25.064Z,22.03
2018-02-06T02:24:52.621Z,19.17
2018-02-06T02:27:20.197Z,26.53
2018-02-06T02:29:47.793Z,21.33
2018-02-06T02:32:15.384Z,25.30
2018-02-06T02:34:42.937Z,23.90
2018-02-06T02:37:11.023Z,22.33
2018-02-06T02:39:38.930Z,21.80
2018-02-06T04:40:37.949Z,19.60
2018-02-06T04:43:05.725Z,26.23
2018-02-06T04:45:34.147Z,28.40
2018-02-06T04:48:01.849Z,25.37
2018-02-06T04:50:29.633Z,21.57
2018-02-06T04:52:57.259Z,24.83
2018-02-06T04:55:24.968Z,26.47
2018-02-06T04:57:52.558Z,29.70
2018-02-06T05:00:20.166Z,50.57
2018-02-06T05:02:47.752Z,50.93
2018-02-06T05:05:15.404Z,58.73
2018-02-06T05:07:43.003Z,54.30
2018-02-06T05:10:10.613Z,44.53
2018-02-06T05:12:38.153Z,42.67
2018-02-06T05:15:05.749Z,32.57
2018-02-06T05:17:33.366Z,47.50
2018-02-06T05:20:01.163Z,32.40
2018-02-06T05:22:28.732Z,32.83
2018-02-06T05:24:56.376Z,37.57
2018-02-06T05:27:23.948Z,46.23
2018-02-06T05:29:51.594Z,47.93
2018-02-06T05:32:19.209Z,44.87
2018-02-06T05:34:46.832Z,45.27
2018-02-06T05:37:14.406Z,48.30
2018-02-06T05:39:42.067Z,48.37
2018-02-06T05:42:09.639Z,28.83
2018-02-06T05:44:37.227Z,29.50
2018-02-06T05:47:04.827Z,29.47
2018-02-06T05:49:32.385Z,30.40
2018-02-06T05:51:59.968Z,31.27
2018-02-06T05:54:27.594Z,27.93
2018-02-06T05:56:55.165Z,26.10
2018-02-06T05:59:23.216Z,27.20
2018-02-06T06:01:50.796Z,26.03
2018-02-06T06:04:18.402Z,27.10
2018-02-06T06:06:46.000Z,28.87
2018-02-06T06:09:13.621Z,29.60
2018-02-06T06:11:41.204Z,31.13
2018-02-06T06:14:08.973Z,28.60
2018-02-06T06:16:36.632Z,32.03
2018-02-06T06:19:04.224Z,30.97
2018-02-06T06:21:32.824Z,37.73
2018-02-06T06:24:00.401Z,33.30
2018-02-06T06:26:27.998Z,27.00
2018-02-06T06:28:55.553Z,33.77
2018-02-06T06:31:23.217Z,31.93
2018-02-06T06:33:50.813Z,32.13
2018-02-06T06:36:18.776Z,35.70
2018-02-06T06:38:46.358Z,42.30
2018-02-06T06:41:13.940Z,32.87
2018-02-06T06:43:41.514Z,30.87
2018-02-06T06:46:09.194Z,30.23
2018-02-06T06:48:36.792Z,34.20
2018-02-06T06:51:04.442Z,32.30
2018-02-06T06:53:32.848Z,31.47
2018-02-06T06:56:00.451Z,35.10
2018-02-06T06:58:28.113Z,24.00
2018-02-06T07:00:55.705Z,37.23
2018-02-06T07:03:23.329Z,30.87
2018-02-06T07:05:50.999Z,32.63
2018-02-06T07:08:18.598Z,34.50
2018-02-06T07:10:46.272Z,29.43
2018-02-06T07:13:13.869Z,33.50
2018-02-06T07:15:41.459Z,42.23
2018-02-06T07:18:10.486Z,31.47
2018-02-06T07:20:38.097Z,41.20
2018-02-06T07:23:05.752Z,35.50
2018-02-06T07:25:33.371Z,34.20
2018-02-06T07:28:01.008Z,43.37
2018-02-06T07:30:28.530Z,37.83
2018-02-06T07:32:56.098Z,27.93
2018-02-06T07:35:23.705Z,27.23
2018-02-06T07:37:54.049Z,34.67
2018-02-06T07:40:21.640Z,29.97
2018-02-06T07:42:49.314Z,35.27
2018-02-06T07:45:16.896Z,36.97
2018-02-06T07:47:45.124Z,37.53
2018-02-06T07:50:12.743Z,38.83
2018-02-06T07:52:40.524Z,28.43
2018-02-06T07:55:08.083Z,38.77
2018-02-06T07:57:35.669Z,34.33
2018-02-06T08:00:03.355Z,26.43
2018-02-06T08:02:30.973Z,28.43
2018-02-06T08:04:58.609Z,31.90
2018-02-06T08:07:26.191Z,33.00
2018-02-06T08:09:53.854Z,32.93
2018-02-06T08:12:21.502Z,35.10
2018-02-06T08:14:49.085Z,38.83
2018-02-06T08:17:16.688Z,25.87
2018-02-06T08:19:44.250Z,35.27
2018-02-06T08:22:11.843Z,29.43
2018-02-06T08:24:39.450Z,29.30
2018-02-06T08:27:07.049Z,37.10
2018-02-06T08:29:34.639Z,28.77
2018-02-06T08:32:02.226Z,28.27
2018-02-06T08:34:29.899Z,29.33
2018-02-06T08:36:57.479Z,30.50
2018-02-06T08:39:25.091Z,29.90
2018-02-06T08:41:52.665Z,28.53
2018-02-06T08:44:20.867Z,23.80
2018-02-06T08:46:48.561Z,27.43
2018-02-06T08:49:16.127Z,27.30
2018-02-06T08:51:43.700Z,27.03
2018-02-06T08:54:11.330Z,28.17
2018-02-06T08:56:38.941Z,29.83
2018-02-06T08:59:06.553Z,35.63
2018-02-06T09:01:34.194Z,27.33
2018-02-06T09:04:01.775Z,29.53
2018-02-06T09:06:29.341Z,26.77
2018-02-06T09:08:56.933Z,28.20
2018-02-06T09:11:24.523Z,31.30
2018-02-06T09:13:52.158Z,25.53
2018-02-06T09:16:19.960Z,25.67
2018-02-06T09:18:47.559Z,26.87
2018-02-06T09:21:15.180Z,28.17
2018-02-06T09:23:42.725Z,27.03
2018-02-06T09:26:10.305Z,25.83
2018-02-06T09:28:37.910Z,25.93
2018-02-06T09:31:05.614Z,22.93
2018-02-06T09:33:33.179Z,27.63
2018-02-06T09:36:00.843Z,32.00
2018-02-06T09:38:28.499Z,29.40
2018-02-06T09:40:56.148Z,28.60
2018-02-06T09:43:23.730Z,33.40
2018-02-06T09:45:51.305Z,32.60
2018-02-06T09:48:19.124Z,54.00
2018-02-06T09:50:46.738Z,36.07
2018-02-06T09:53:14.355Z,34.00
2018-02-06T09:55:42.010Z,37.13
2018-02-06T09:58:09.622Z,39.30
2018-02-06T10:00:37.620Z,31.57
2018-02-06T10:03:05.361Z,34.33
2018-02-06T10:05:32.948Z,35.90
2018-02-06T10:08:00.540Z,30.40
2018-02-06T10:10:28.108Z,28.40
2018-02-06T10:12:55.675Z,30.37
2018-02-06T10:15:23.305Z,35.50
2018-02-06T10:17:50.881Z,34.23
2018-02-06T10:20:18.479Z,24.30
2018-02-06T10:22:46.079Z,35.10
2018-02-06T10:25:13.668Z,24.93
2018-02-06T10:27:41.325Z,25.37
2018-02-06T10:30:08.913Z,30.13
2018-02-06T10:32:36.483Z,23.50
2018-02-06T10:35:04.072Z,22.90
2018-02-06T10:37:31.637Z,28.63
2018-02-06T10:39:59.197Z,26.73
2018-02-06T10:42:26.758Z,46.73
2018-02-06T10:44:54.340Z,25.07
2018-02-06T10:47:21.920Z,23.93
2018-02-06T10:49:49.497Z,27.87
2018-02-06T10:52:17.078Z,24.87
2018-02-06T10:54:44.722Z,34.70
2018-02-06T10:57:12.502Z,25.33
2018-02-06T10:59:40.094Z,30.83
2018-02-06T11:02:07.859Z,22.90
2018-02-06T11:04:36.073Z,24.50
2018-02-06T11:07:05.366Z,28.80
2018-02-06T11:09:32.965Z,32.10
2018-02-06T11:12:00.557Z,27.13
2018-02-06T11:14:28.130Z,25.00
2018-02-06T11:16:58.610Z,33.40
2018-02-06T11:19:26.241Z,26.70
2018-02-06T11:21:54.622Z,27.83
2018-02-06T11:24:22.238Z,26.23
2018-02-06T11:26:49.800Z,28.50
2018-02-06T11:29:17.362Z,21.23
2018-02-06T11:31:44.928Z,23.97
2018-02-06T11:34:12.511Z,27.10
2018-02-06T11:36:40.117Z,23.50
2018-02-06T11:39:07.705Z,27.97
2018-02-06T11:41:35.310Z,23.17
2018-02-06T11:44:02.861Z,25.93
2018-02-06T11:46:30.454Z,20.10
2018-02-06T11:48:58.025Z,30.37
2018-02-06T11:51:25.582Z,22.83
2018-02-06T11:53:53.153Z,22.80
2018-02-06T11:56:20.737Z,24.20
2018-02-06T11:58:48.302Z,31.07
2018-02-06T12:01:15.962Z,21.87
2018-02-06T12:03:43.538Z,28.40
2018-02-06T12:06:11.244Z,23.97
2018-02-06T12:08:38.813Z,23.23
2018-02-06T12:11:07.291Z,24.63
2018-02-06T12:13:34.830Z,28.00
2018-02-06T12:16:02.396Z,26.77
2018-02-06T12:18:35.197Z,24.87
2018-02-06T12:21:02.883Z,30.73
2018-02-06T12:23:31.354Z,22.63
2018-02-06T12:25:58.933Z,20.03
2018-02-06T12:28:26.538Z,23.60
2018-02-06T12:30:54.103Z,21.20
2018-02-06T12:33:21.716Z,24.93
2018-02-06T12:35:49.402Z,22.27
2018-02-06T12:38:16.997Z,23.00
2018-02-06T12:40:44.570Z,24.60
2018-02-06T12:43:12.664Z,29.30
2018-02-06T12:45:40.341Z,27.40
2018-02-06T12:48:07.926Z,25.67
2018-02-06T12:50:35.490Z,27.07
2018-02-06T12:53:03.141Z,29.00
2018-02-06T12:55:31.194Z,25.17
2018-02-06T12:57:58.803Z,24.43
2018-02-06T13:00:26.690Z,39.43
2018-02-06T13:02:54.420Z,26.93
2018-02-06T13:05:22.429Z,32.57
2018-02-06T13:07:51.010Z,28.60
2018-02-06T13:10:19.071Z,29.60
2018-02-06T13:12:46.658Z,28.20
2018-02-06T13:15:14.231Z,22.80
2018-02-06T13:17:41.875Z,25.73
2018-02-06T13:20:09.451Z,33.73
2018-02-06T13:22:37.022Z,33.30
2018-02-06T13:25:04.630Z,31.17
2018-02-06T13:27:32.199Z,27.07
2018-02-06T13:29:59.770Z,29.30
2018-02-06T13:32:27.400Z,29.13
2018-02-06T13:34:54.972Z,29.07
2018-02-06T13:37:22.632Z,24.47
2018-02-06T13:39:50.202Z,25.97
2018-02-06T13:42:17.794Z,35.53
2018-02-06T13:44:45.378Z,28.97
2018-02-06T13:47:13.154Z,28.03
2018-02-06T13:49:40.727Z,32.47
2018-02-06T13:52:08.369Z,32.93
2018-02-06T13:54:35.939Z,34.27
2018-02-06T13:57:03.556Z,27.47
2018-02-06T13:59:31.183Z,27.70
2018-02-06T14:01:58.786Z,27.03
2018-02-06T14:04:26.383Z,27.03
2018-02-06T14:06:53.972Z,38.57
2018-02-06T14:09:21.706Z,31.47
2018-02-06T14:11:49.309Z,31.03
2018-02-06T14:14:16.891Z,33.70
2018-02-06T14:16:44.436Z,33.23
2018-02-06T14:19:12.172Z,35.87
2018-02-06T14:21:39.745Z,30.60
2018-02-06T14:24:07.309Z,34.90
2018-02-06T14:26:34.890Z,29.17
2018-02-06T14:29:02.484Z,34.07
2018-02-06T14:31:30.041Z,29.43
2018-02-06T14:33:57.647Z,35.40
2018-02-06T14:36:25.212Z,35.37
2018-02-06T14:38:52.757Z,36.83
2018-02-06T14:41:20.583Z,44.97
2018-02-06T14:43:48.152Z,31.20
2018-02-06T14:46:15.841Z,34.70
2018-02-06T14:48:43.440Z,45.80
2018-02-06T14:51:16.962Z,50.60
2018-02-06T14:53:44.558Z,47.87
2018-02-06T14:56:12.220Z,43.83
2018-02-06T14:58:39.775Z,41.60
2018-02-06T15:01:07.390Z,40.30
2018-02-06T15:03:34.929Z,37.20
2018-02-06T15:06:05.408Z,49.87
2018-02-06T15:08:33.155Z,49.43
2018-02-06T15:11:00.796Z,43.73
2018-02-06T15:13:28.504Z,30.80
2018-02-06T15:15:56.144Z,34.67
2018-02-06T15:18:23.720Z,35.07
2018-02-06T15:20:51.545Z,39.43
2018-02-06T15:23:19.144Z,56.77
2018-02-06T15:25:46.712Z,54.03
2018-02-06T15:28:14.292Z,55.77
2018-02-06T15:30:41.876Z,56.80
2018-02-06T15:33:09.518Z,41.43
2018-02-06T15:35:37.199Z,41.50
2018-02-06T15:38:08.297Z,39.63
2018-02-06T15:40:46.981Z,35.97
2018-02-06T15:43:16.284Z,46.07
2018-02-06T15:45:44.074Z,39.67
2018-02-06T15:48:11.888Z,47.93
2018-02-06T15:50:40.110Z,47.57
2018-02-06T15:53:08.747Z,43.17
2018-02-06T15:55:37.076Z,42.77
2018-02-06T15:58:06.019Z,41.97
2018-02-06T16:00:43.678Z,42.67
2018-02-06T16:03:11.741Z,46.60
2018-02-06T16:05:39.325Z,48.63
2018-02-06T16:08:06.921Z,51.53
2018-02-06T16:10:34.481Z,44.63
2018-02-06T16:13:02.040Z,45.77
2018-02-06T16:15:29.656Z,54.10
2018-02-06T16:17:57.219Z,55.20
2018-02-06T16:20:24.818Z,56.47
2018-02-06T16:22:52.391Z,48.17
2018-02-06T16:25:19.947Z,63.57
2018-02-06T16:27:47.528Z,45.80
2018-02-06T16:30:15.104Z,56.77
2018-02-06T16:32:42.658Z,67.77
2018-02-06T16:35:11.838Z,57.90
2018-02-06T16:37:39.460Z,60.63
2018-02-06T16:40:07.042Z,52.30
2018-02-06T16:42:34.670Z,51.33
2018-02-06T16:45:02.263Z,45.57
2018-02-06T16:47:30.971Z,52.20
2018-02-06T16:49:58.557Z,47.73
2018-02-06T16:52:26.345Z,47.23
2018-02-06T16:54:53.966Z,54.63
2018-02-06T16:57:21.751Z,50.63
2018-02-06T16:59:49.325Z,44.73
2018-02-06T17:02:28.653Z,40.33
2018-02-06T17:04:56.254Z,54.43
2018-02-06T17:07:24.943Z,52.73
2018-02-06T17:09:52.616Z,50.67
2018-02-06T17:12:21.021Z,54.93
2018-02-06T17:14:48.599Z,51.50
2018-02-06T17:17:17.248Z,48.80
2018-02-06T17:19:44.836Z,51.60
2018-02-06T17:22:12.423Z,48.87
2018-02-06T17:24:43.756Z,56.07
2018-02-06T17:27:11.644Z,46.23
2018-02-06T17:29:39.232Z,55.10
2018-02-06T17:32:06.849Z,55.87
2018-02-06T17:34:34.396Z,54.13
2018-02-06T17:37:02.023Z,64.07
2018-02-06T17:39:29.655Z,56.27
2018-02-06T17:41:57.250Z,47.67
2018-02-06T17:44:25.445Z,65.07
2018-02-06T17:46:53.050Z,46.00
2018-02-06T17:49:20.650Z,47.83
2018-02-06T17:51:48.242Z,63.27
2018-02-06T17:54:15.884Z,46.03
2018-02-06T17:56:43.485Z,47.70
2018-02-06T17:59:11.094Z,52.33
2018-02-06T18:01:38.768Z,45.90
2018-02-06T18:04:06.339Z,56.10
2018-02-06T18:06:34.174Z,64.83
2018-02-06T18:09:01.891Z,52.10
2018-02-06T18:11:29.571Z,55.80
2018-02-06T18:13:57.207Z,52.53
2018-02-06T18:16:24.869Z,47.00
2018-02-06T18:18:52.460Z,48.37
2018-02-06T18:21:20.484Z,51.03
2018-02-06T18:23:48.098Z,61.73
2018-02-06T18:26:15.700Z,61.40
2018-02-06T18:28:43.448Z,57.00
2018-02-06T18:31:12.138Z,54.00
2018-02-06T18:33:39.797Z,57.67
2018-02-06T18:36:07.433Z,50.20
2018-02-06T18:38:34.994Z,53.83
2018-02-06T18:41:02.621Z,50.37
2018-02-06T18:43:31.622Z,50.00
2018-02-06T18:45:59.199Z,55.27
2018-02-06T18:48:26.830Z,55.93
2018-02-06T18:50:54.668Z,51.40
2018-02-06T18:53:22.349Z,52.03
2018-02-06T18:55:50.181Z,50.40
2018-02-06T18:58:17.831Z,57.27
2018-02-06T19:00:45.449Z,52.00
2018-02-06T19:03:13.118Z,66.93
2018-02-06T19:05:40.817Z,59.17
2018-02-06T19:08:08.475Z,50.67
2018-02-06T19:10:36.066Z,53.97
2018-02-06T19:13:03.681Z,50.93
2018-02-06T19:15:31.303Z,51.73
2018-02-06T19:17:58.942Z,50.53
2018-02-06T19:20:26.544Z,58.23
2018-02-06T19:22:55.413Z,49.70
2018-02-06T19:25:23.024Z,50.37
2018-02-06T19:27:52.658Z,54.37
2018-02-06T19:30:20.498Z,49.43
2018-02-06T19:32:48.075Z,48.90
2018-02-06T19:35:16.234Z,53.63
2018-02-06T19:37:43.820Z,62.50
2018-02-06T19:40:11.422Z,49.13
2018-02-06T19:42:39.858Z,63.90
2018-02-06T19:45:08.495Z,51.17
2018-02-06T19:47:36.060Z,60.30
2018-02-06T19:50:04.762Z,57.17
2018-02-06T19:52:33.040Z,50.40
2018-02-06T19:55:00.637Z,50.00
2018-02-06T19:57:28.279Z,51.53
2018-02-06T19:59:58.883Z,51.60
2018-02-06T20:02:26.591Z,54.63
2018-02-06T20:04:54.223Z,47.13
2018-02-06T20:07:21.872Z,42.63
2018-02-06T20:09:49.481Z,50.47
2018-02-06T20:12:17.302Z,47.57
2018-02-06T20:14:44.938Z,49.50
2018-02-06T20:17:12.549Z,52.67
2018-02-06T20:19:40.205Z,62.20
2018-02-06T20:22:07.780Z,54.17
2018-02-06T20:24:35.574Z,58.00
2018-02-06T20:27:03.282Z,42.37
2018-02-06T20:32:21.359Z,49.83
2018-02-06T20:34:48.930Z,49.40
2018-02-06T20:37:16.537Z,49.53
2018-02-06T20:39:44.123Z,48.40
2018-02-06T20:42:11.675Z,44.07
2018-02-06T20:44:41.234Z,47.87
2018-02-06T20:47:09.316Z,47.40
2018-02-06T20:49:36.894Z,43.20
2018-02-06T20:52:04.574Z,48.20
2018-02-06T20:54:32.196Z,44.83
2018-02-06T20:56:59.796Z,44.00
2018-02-06T20:59:27.382Z,45.23
2018-02-06T21:01:55.064Z,40.27
2018-02-06T21:04:22.778Z,44.60
2018-02-06T21:06:50.328Z,44.90
2018-02-06T21:09:18.291Z,48.07
2018-02-06T21:11:47.370Z,47.70
2018-02-06T21:14:15.034Z,40.83
2018-02-06T21:16:42.674Z,59.70
2018-02-06T21:19:10.739Z,47.13
2018-02-06T21:21:38.624Z,43.67
2018-02-06T21:24:06.168Z,44.53
2018-02-06T21:26:33.766Z,49.27
2018-02-06T21:29:01.328Z,46.30
2018-02-06T21:31:28.952Z,54.93
2018-02-06T21:33:56.565Z,43.03
2018-02-06T21:36:24.158Z,43.87
2018-02-06T21:38:51.787Z,41.70
2018-02-06T21:41:19.372Z,38.20
2018-02-06T21:43:46.945Z,45.83
2018-02-06T21:46:14.748Z,44.33
2018-02-06T21:48:42.292Z,41.60
2018-02-06T21:51:10.499Z,46.33
2018-02-06T21:53:38.309Z,36.17
2018-02-06T21:56:05.893Z,44.30
2018-02-06T21:58:33.477Z,41.40
2018-02-06T22:01:01.090Z,33.90
2018-02-06T22:03:28.658Z,44.20
2018-02-06T22:05:56.224Z,39.93
2018-02-06T22:08:23.920Z,44.77
2018-02-06T22:10:51.459Z,46.87
2018-02-06T22:13:19.058Z,40.60
2018-02-06T22:15:46.789Z,40.97
2018-02-06T22:18:14.411Z,38.43
2018-02-06T22:20:42.204Z,39.80
2018-02-06T22:23:10.837Z,36.67
2018-02-06T22:25:38.441Z,43.60
2018-02-06T22:28:06.068Z,30.90
2018-02-06T22:30:34.005Z,33.17
2018-02-06T22:33:01.609Z,42.43
2018-02-06T22:35:29.239Z,41.63
2018-02-06T22:37:56.805Z,40.60
2018-02-06T22:40:24.467Z,35.13
2018-02-06T22:42:52.083Z,41.50
2018-02-06T22:45:19.656Z,39.93
2018-02-06T22:47:47.316Z,39.17
2018-02-06T22:50:14.928Z,33.73
2018-02-06T22:52:42.522Z,38.30
2018-02-06T22:55:10.991Z,36.20
2018-02-06T22:57:38.877Z,36.17
2018-02-06T23:00:07.042Z,38.70
2018-02-06T23:02:35.021Z,39.93
2018-02-06T23:05:02.622Z,37.80
2018-02-06T23:07:30.364Z,42.23
2018-02-06T23:09:57.966Z,41.23
2018-02-06T23:12:25.539Z,56.27
2018-02-06T23:14:54.042Z,56.50
2018-02-06T23:17:21.640Z,58.33
2018-02-06T23:19:49.559Z,63.67
2018-02-06T23:22:17.163Z,50.73
2018-02-06T23:24:44.762Z,50.07
2018-02-06T23:27:12.774Z,45.43
2018-02-06T23:29:40.531Z,38.90
2018-02-06T23:32:08.167Z,39.70
2018-02-06T23:34:35.773Z,49.63
2018-02-06T23:37:06.025Z,41.03
2018-02-06T23:39:33.742Z,40.50
2018-02-06T23:42:01.366Z,43.07
2018-02-06T23:44:29.005Z,49.07
2018-02-06T23:46:57.526Z,44.63
2018-02-06T23:49:25.596Z,39.83
2018-02-06T23:51:53.310Z,54.47
2018-02-06T23:54:20.925Z,55.10
2018-02-06T23:56:48.545Z,45.77
2018-02-06T23:59:16.158Z,54.97
